METAR Data

Data at: 1856 UTC 21 Nov 2018

METAR for:CYCX (Gagetown (MIL), NB, CN)
Text:CYCX 211800Z 25008KT 12SM -SN BKN020 M03/M07 A2976 RMK SC7 DA-1830FT PCPN VRY LGT SLP081
Temperature: -3.0°C ( 27°F)
Dewpoint: -7.0°C ( 19°F) [RH = 74%]
Pressure (altimeter):29.76 inches Hg (1007.9 mb) [Sea level pressure: 1008.1 mb]
Winds:from the WSW (250 degrees) at 9 MPH (8 knots; 4.1 m/s)
Visibility: 12 sm ( 19 km)
Ceiling:2000 feet AGL
Clouds: broken clouds at 2000 feet AGL
Weather:-SN (light snow)